createdAt,value
2023-03-28T00:02:06.966Z,93381.41
2023-03-28T00:05:01.152Z,93395.75
2023-03-28T00:07:30.489Z,93407.13
2023-03-28T00:10:00.346Z,93416.91
2023-03-28T00:12:30.282Z,93424.81
2023-03-28T00:14:58.759Z,93440.56
2023-03-28T00:17:27.491Z,93446.59
2023-03-28T00:19:55.956Z,93457.31
2023-03-28T00:22:24.932Z,93453.56
2023-03-28T00:24:53.690Z,93463.25
2023-03-28T00:27:23.591Z,93475.63
2023-03-28T00:29:52.108Z,93473.91
2023-03-28T00:32:20.545Z,93481.91
2023-03-28T00:34:49.003Z,93470.66
2023-03-28T00:37:17.530Z,93506.69
2023-03-28T00:39:49.992Z,93500.16
2023-03-28T00:42:20.043Z,93477.50
2023-03-28T00:44:52.770Z,93493.50
2023-03-28T00:47:37.922Z,93493.41
2023-03-28T00:50:36.793Z,93502.16
2023-03-28T00:53:10.848Z,93503.50
2023-03-28T00:55:43.819Z,93494.53
2023-03-28T00:58:18.221Z,93493.50
2023-03-28T01:13:39.560Z,93523.69
2023-03-28T01:16:10.136Z,93522.56
2023-03-28T01:18:41.407Z,93518.38
2023-03-28T01:21:54.969Z,93527.84
2023-03-28T01:25:06.088Z,93547.88
2023-03-28T01:27:45.675Z,93552.16
2023-03-28T01:31:04.811Z,93555.84
2023-03-28T01:34:21.217Z,93542.38
2023-03-28T01:37:09.189Z,93542.91
2023-03-28T01:40:01.269Z,93556.53
2023-03-28T01:42:42.389Z,93556.94
2023-03-28T01:45:19.548Z,93569.91
2023-03-28T01:48:01.229Z,93577.88
2023-03-28T01:50:40.948Z,93567.75
2023-03-28T01:53:44.569Z,93567.06
2023-03-28T01:56:39.920Z,93574.94
2023-03-28T01:59:18.139Z,93562.53
2023-03-28T02:01:54.195Z,93564.34
2023-03-28T02:04:29.190Z,93569.34
2023-03-28T02:06:59.438Z,93579.91
2023-03-28T02:09:32.468Z,93574.53
2023-03-28T02:12:09.353Z,93576.56
2023-03-28T02:14:42.448Z,93573.09
2023-03-28T02:17:16.688Z,93582.47
2023-03-28T02:19:53.406Z,93590.91
2023-03-28T02:22:30.395Z,93581.88
2023-03-28T02:25:00.559Z,93573.78
2023-03-28T02:27:55.236Z,93563.75
2023-03-28T02:30:28.478Z,93564.84
2023-03-28T02:33:01.139Z,93577.66
2023-03-28T02:35:46.890Z,93584.88
2023-03-28T02:38:26.567Z,93578.81
2023-03-28T02:41:15.474Z,93588.44
2023-03-28T02:44:37.213Z,93590.38
2023-03-28T02:47:17.942Z,93583.53
2023-03-28T02:50:04.316Z,93593.34
2023-03-28T02:52:40.863Z,93598.22
2023-03-28T02:55:21.538Z,93607.34
2023-03-28T02:58:00.119Z,93612.69
2023-03-28T03:00:28.721Z,93606.38
2023-03-28T03:02:58.495Z,93608.66
2023-03-28T03:05:27.026Z,93602.59
2023-03-28T03:19:38.299Z,93630.06
2023-03-28T03:22:06.753Z,93640.91
2023-03-28T03:24:36.395Z,93644.53
2023-03-28T03:27:05.318Z,93649.84
2023-03-28T03:29:38.998Z,93654.59
2023-03-28T03:32:08.224Z,93660.81
2023-03-28T03:34:38.001Z,93669.50
2023-03-28T03:37:06.567Z,93673.53
2023-03-28T03:39:36.043Z,93659.25
2023-03-28T03:42:05.088Z,93667.47
2023-03-28T03:44:33.763Z,93678.84
2023-03-28T03:47:02.181Z,93676.59
2023-03-28T03:49:30.723Z,93681.16
2023-03-28T03:52:00.694Z,93668.66
2023-03-28T03:54:29.226Z,93680.66
2023-03-28T03:56:57.744Z,93687.56
2023-03-28T03:59:26.500Z,93673.63
2023-03-28T04:01:55.861Z,93695.25
2023-03-28T04:04:25.098Z,93696.91
2023-03-28T04:06:53.502Z,93689.13
2023-03-28T04:09:26.636Z,93695.19
2023-03-28T04:11:55.712Z,93713.84
2023-03-28T04:14:24.726Z,93721.91
2023-03-28T04:16:54.049Z,93715.09
2023-03-28T04:19:24.425Z,93722.03
2023-03-28T04:21:57.444Z,93735.00
2023-03-28T04:24:27.469Z,93729.38
2023-03-28T04:26:56.313Z,93729.25
2023-03-28T04:29:30.809Z,93735.97
2023-03-28T04:31:59.575Z,93723.19
2023-03-28T04:34:30.919Z,93751.94
2023-03-28T04:37:02.253Z,93725.72
2023-03-28T04:39:35.749Z,93772.88
2023-03-28T04:42:05.988Z,93762.25
2023-03-28T04:44:34.463Z,93770.41
2023-03-28T04:47:02.962Z,93772.13
2023-03-28T04:49:31.427Z,93770.63
2023-03-28T04:52:02.193Z,93768.69
2023-03-28T04:54:32.046Z,93778.72
2023-03-28T04:57:00.786Z,93783.75
2023-03-28T04:59:29.571Z,93787.69
2023-03-28T05:01:58.352Z,93784.09
2023-03-28T05:04:27.931Z,93772.91
2023-03-28T05:06:56.466Z,93787.72
2023-03-28T05:09:25.028Z,93787.03
2023-03-28T05:11:54.999Z,93784.66
2023-03-28T05:14:23.550Z,93787.63
2023-03-28T05:16:52.188Z,93788.72
2023-03-28T05:19:21.986Z,93792.81
2023-03-28T05:21:50.425Z,93805.22
2023-03-28T05:24:19.183Z,93797.91
2023-03-28T05:26:47.617Z,93797.28
2023-03-28T05:29:17.552Z,93804.72
2023-03-28T05:31:46.015Z,93803.16
2023-03-28T05:34:14.542Z,93797.47
2023-03-28T05:36:42.986Z,93800.78
2023-03-28T05:39:11.836Z,93799.44
2023-03-28T05:41:40.351Z,93807.72
2023-03-28T05:44:08.761Z,93821.72
2023-03-28T05:46:38.584Z,93828.28
2023-03-28T05:49:07.290Z,93817.28
2023-03-28T05:51:35.784Z,93831.69
2023-03-28T05:54:04.301Z,93834.22
2023-03-28T05:56:35.771Z,93835.38
2023-03-28T05:59:04.533Z,93844.19
2023-03-28T06:01:34.980Z,93834.19
2023-03-28T06:04:05.746Z,93849.59
2023-03-28T06:06:34.717Z,93843.16
2023-03-28T06:09:03.605Z,93846.50
2023-03-28T06:11:32.071Z,93845.97
2023-03-28T06:14:00.538Z,93847.94
2023-03-28T06:16:30.284Z,93845.81
2023-03-28T06:19:14.453Z,93860.16
2023-03-28T06:21:44.740Z,93851.50
2023-03-28T06:24:13.253Z,93854.41
2023-03-28T06:26:41.761Z,93862.03
2023-03-28T06:29:10.396Z,93852.50
2023-03-28T06:31:39.048Z,93866.69
2023-03-28T06:34:07.503Z,93866.81
2023-03-28T06:36:36.131Z,93878.16
2023-03-28T06:39:06.198Z,93879.44
2023-03-28T06:41:35.011Z,93879.31
2023-03-28T06:44:03.637Z,93880.75
2023-03-28T06:46:32.184Z,93890.09
2023-03-28T06:49:00.959Z,93893.78
2023-03-28T06:51:29.772Z,93889.78
2023-03-28T06:53:58.245Z,93887.13
2023-03-28T06:56:28.485Z,93900.13
2023-03-28T06:59:00.314Z,93890.69
2023-03-28T07:01:28.945Z,93891.34
2023-03-28T07:04:47.587Z,93894.09
2023-03-28T07:07:16.146Z,93899.88
2023-03-28T07:09:44.768Z,93900.06
2023-03-28T07:12:14.591Z,93899.72
2023-03-28T07:14:44.644Z,93911.47
2023-03-28T07:17:13.145Z,93912.91
2023-03-28T07:19:41.595Z,93915.53
2023-03-28T07:22:10.151Z,93902.16
2023-03-28T07:24:38.640Z,93915.69
2023-03-28T07:27:15.599Z,93925.28
2023-03-28T07:29:46.407Z,93926.03
2023-03-28T07:32:15.575Z,93929.09
2023-03-28T07:34:59.455Z,93935.50
2023-03-28T07:37:27.925Z,93929.91
2023-03-28T07:39:56.602Z,93939.47
2023-03-28T07:42:25.224Z,93934.88
2023-03-28T07:44:55.792Z,93941.78
2023-03-28T07:47:24.333Z,93944.59
2023-03-28T07:49:52.817Z,93943.72
2023-03-28T07:52:21.784Z,93952.09
2023-03-28T07:54:50.292Z,93962.75
2023-03-28T07:57:18.906Z,93967.50
2023-03-28T07:59:47.728Z,93972.47
2023-03-28T08:02:18.162Z,93976.84
2023-03-28T08:04:46.849Z,93970.06
2023-03-28T08:07:15.669Z,93968.28
2023-03-28T08:09:44.131Z,93988.50
2023-03-28T08:12:12.562Z,93988.94
2023-03-28T08:14:41.186Z,93999.38
2023-03-28T08:17:10.686Z,93999.56
2023-03-28T08:19:40.504Z,93997.66
2023-03-28T08:22:10.632Z,94007.69
2023-03-28T08:25:03.838Z,94014.28
2023-03-28T08:27:32.343Z,94009.03
2023-03-28T08:30:00.963Z,94005.44
2023-03-28T08:32:29.603Z,94008.94
2023-03-28T08:35:02.924Z,94017.88
2023-03-28T08:37:31.675Z,94010.81
2023-03-28T08:40:00.774Z,93998.78
2023-03-28T08:42:46.651Z,94004.00
2023-03-28T08:45:30.217Z,94011.06
2023-03-28T08:48:13.701Z,94000.69
2023-03-28T08:50:49.117Z,94001.97
2023-03-28T08:53:27.590Z,94006.72
2023-03-28T08:55:58.603Z,94006.19
2023-03-28T08:58:35.348Z,94023.91
2023-03-28T09:01:04.475Z,94014.13
2023-03-28T09:03:36.936Z,94023.66
2023-03-28T09:06:20.800Z,94026.50
2023-03-28T09:09:16.268Z,94021.91
2023-03-28T09:12:05.910Z,94031.09
2023-03-28T09:15:24.395Z,94035.25
2023-03-28T09:18:15.286Z,94034.72
2023-03-28T09:20:52.835Z,94029.78
2023-03-28T09:24:05.707Z,94047.41
2023-03-28T09:26:37.410Z,94048.06
2023-03-28T09:29:12.030Z,94040.91
2023-03-28T09:31:47.000Z,94047.69
2023-03-28T09:34:24.045Z,94043.38
2023-03-28T09:36:58.504Z,94041.78
2023-03-28T09:39:38.601Z,94028.03
2023-03-28T09:42:15.155Z,94032.50
2023-03-28T09:44:55.000Z,94037.16
2023-03-28T09:47:23.724Z,94039.34
2023-03-28T09:50:02.258Z,94041.88
2023-03-28T09:52:34.353Z,94051.59
2023-03-28T09:55:04.636Z,94032.94
2023-03-28T09:58:04.019Z,94043.53
2023-03-28T10:00:38.444Z,94037.25
2023-03-28T10:03:23.016Z,94036.75
2023-03-28T10:05:52.825Z,94036.47
2023-03-28T10:08:26.974Z,94039.53
2023-03-28T10:11:03.653Z,94028.91
2023-03-28T10:13:38.789Z,94045.50
2023-03-28T10:16:09.131Z,94045.31
2023-03-28T10:18:41.443Z,94042.28
2023-03-28T10:21:17.324Z,94039.34
2023-03-28T10:23:54.276Z,94061.38
2023-03-28T10:26:27.525Z,94050.41
2023-03-28T10:29:04.344Z,94055.03
2023-03-28T10:31:34.599Z,94058.66
2023-03-28T10:34:03.977Z,94062.25
2023-03-28T10:36:37.539Z,94072.19
2023-03-28T10:39:24.201Z,94066.09
2023-03-28T10:41:59.140Z,94059.81
2023-03-28T10:44:30.612Z,94037.22
2023-03-28T10:47:04.643Z,94080.22
2023-03-28T10:49:44.779Z,94056.31
2023-03-28T10:52:24.930Z,94060.59
2023-03-28T10:55:12.938Z,94060.81
2023-03-28T10:57:58.460Z,94072.25
2023-03-28T11:00:34.578Z,94076.94
2023-03-28T11:03:25.816Z,94066.09
2023-03-28T11:06:09.536Z,94085.13
2023-03-28T11:08:55.253Z,94082.09
2023-03-28T11:11:48.415Z,94078.50
2023-03-28T11:14:41.102Z,94074.41
2023-03-28T11:17:18.318Z,94069.34
2023-03-28T11:20:23.611Z,94079.97
2023-03-28T11:23:21.947Z,94080.28
2023-03-28T11:26:02.428Z,94080.63
2023-03-28T11:28:46.748Z,94076.47
2023-03-28T11:31:23.282Z,94085.94
2023-03-28T11:34:02.279Z,94080.84
2023-03-28T11:36:37.359Z,94080.34
2023-03-28T11:39:19.095Z,94081.81
2023-03-28T11:42:12.241Z,94090.38
2023-03-28T11:44:46.834Z,94066.91
2023-03-28T11:47:22.443Z,94085.00
2023-03-28T11:50:00.362Z,94084.38
2023-03-28T11:52:37.427Z,94092.94
2023-03-28T11:55:16.860Z,94092.28
2023-03-28T11:57:56.995Z,94096.13
2023-03-28T12:00:34.262Z,94104.47
2023-03-28T12:03:17.585Z,94097.59
2023-03-28T12:06:04.141Z,94109.34
2023-03-28T12:08:40.174Z,94089.69
2023-03-28T12:11:17.452Z,94090.03
2023-03-28T12:14:08.886Z,94086.19
2023-03-28T12:16:44.955Z,94081.56
2023-03-28T12:19:23.113Z,94087.31
2023-03-28T12:21:58.912Z,94069.34
2023-03-28T12:25:00.430Z,94067.19
2023-03-28T12:27:43.125Z,94073.75
2023-03-28T12:30:22.574Z,94084.72
2023-03-28T12:33:02.905Z,94076.00
2023-03-28T12:35:43.131Z,94075.00
2023-03-28T12:38:26.641Z,94075.78
2023-03-28T12:41:00.736Z,94079.19
2023-03-28T12:43:47.044Z,94082.13
2023-03-28T12:46:22.078Z,94083.81
2023-03-28T12:48:57.643Z,94079.97
2023-03-28T12:51:36.720Z,94066.19
2023-03-28T12:54:24.199Z,94069.91
2023-03-28T12:57:04.771Z,94068.66
2023-03-28T13:00:12.421Z,94072.63
2023-03-28T13:02:53.174Z,94086.75
2023-03-28T13:05:31.044Z,94078.72
2023-03-28T13:08:09.798Z,94087.31
2023-03-28T13:10:47.525Z,94097.94
2023-03-28T13:13:29.087Z,94082.59
2023-03-28T13:16:06.909Z,94096.25
2023-03-28T13:19:07.993Z,94088.34
2023-03-28T13:21:46.269Z,94087.66
2023-03-28T13:24:34.387Z,94087.78
2023-03-28T13:27:11.980Z,94088.13
2023-03-28T13:29:50.896Z,94088.19
2023-03-28T13:32:23.899Z,94071.03
2023-03-28T13:34:57.837Z,94094.75
2023-03-28T13:37:49.143Z,94080.09
2023-03-28T13:40:48.411Z,94093.53
2023-03-28T13:43:29.480Z,94092.38
2023-03-28T13:46:02.942Z,94096.47
2023-03-28T13:48:39.570Z,94103.41
2023-03-28T13:51:12.047Z,94095.50
2023-03-28T13:53:47.580Z,94103.31
2023-03-28T13:56:26.704Z,94101.09
2023-03-28T13:58:58.712Z,94108.44
2023-03-28T14:01:35.875Z,94109.00
2023-03-28T14:04:33.773Z,94105.81
2023-03-28T14:07:03.749Z,94108.81
2023-03-28T14:09:35.550Z,94119.44
2023-03-28T14:12:10.300Z,94125.34
2023-03-28T14:15:04.391Z,94119.69
2023-03-28T14:17:36.496Z,94122.41
2023-03-28T14:20:08.353Z,94119.78
2023-03-28T14:22:52.827Z,94116.31
2023-03-28T14:25:27.470Z,94127.50
2023-03-28T14:27:58.692Z,94130.88
2023-03-28T14:30:29.922Z,94123.06
2023-03-28T14:33:01.583Z,94115.06
2023-03-28T14:35:33.069Z,94119.00
2023-03-28T14:38:15.989Z,94125.44
2023-03-28T14:40:46.762Z,94120.25
2023-03-28T14:43:29.391Z,94125.91
2023-03-28T14:46:03.079Z,94153.28
2023-03-28T14:48:32.486Z,94136.41
2023-03-28T14:51:03.950Z,94138.38
2023-03-28T14:53:39.016Z,94133.72
2023-03-28T14:56:12.758Z,94150.56
2023-03-28T14:58:46.926Z,94152.84
2023-03-28T15:01:22.930Z,94159.06
2023-03-28T15:03:59.785Z,94154.88
2023-03-28T15:06:29.640Z,94159.31
2023-03-28T15:09:01.189Z,94147.84
2023-03-28T15:11:34.857Z,94155.03
2023-03-28T15:14:14.139Z,94166.94
2023-03-28T15:16:46.556Z,94168.75
2023-03-28T15:19:24.272Z,94163.75
2023-03-28T15:21:58.619Z,94174.84
2023-03-28T15:24:29.624Z,94176.78
2023-03-28T15:27:02.007Z,94191.97
2023-03-28T15:29:37.187Z,94183.28
2023-03-28T15:32:09.265Z,94191.53
2023-03-28T15:34:47.773Z,94191.25
2023-03-28T15:37:21.860Z,94193.38
2023-03-28T15:39:52.190Z,94209.75
2023-03-28T15:42:38.364Z,94226.41
2023-03-28T15:45:31.278Z,94231.22
2023-03-28T15:48:00.215Z,94233.16
2023-03-28T15:50:38.801Z,94244.41
2023-03-28T15:53:15.185Z,94250.28
2023-03-28T15:55:45.451Z,94253.97
2023-03-28T15:58:17.114Z,94255.84
2023-03-28T16:00:50.319Z,94242.94
2023-03-28T16:03:34.187Z,94250.75
2023-03-28T16:06:30.185Z,94260.69
2023-03-28T16:09:20.216Z,94273.28
2023-03-28T16:11:56.878Z,94267.38
2023-03-28T16:14:25.830Z,94270.53
2023-03-28T16:16:58.842Z,94271.38
2023-03-28T16:19:30.732Z,94278.84
2023-03-28T16:22:01.064Z,94284.31
2023-03-28T16:24:29.947Z,94294.34
2023-03-28T16:26:58.623Z,94304.13
2023-03-28T16:29:26.998Z,94305.94
2023-03-28T16:31:55.536Z,94315.31
2023-03-28T16:34:25.665Z,94321.28
2023-03-28T16:36:56.103Z,94325.91
2023-03-28T16:39:24.866Z,94336.22
2023-03-28T16:41:59.498Z,94332.47
2023-03-28T16:44:28.018Z,94319.94
2023-03-28T16:46:57.179Z,94341.63
2023-03-28T16:49:27.147Z,94345.06
2023-03-28T16:51:56.347Z,94353.81
2023-03-28T16:54:25.380Z,94359.38
2023-03-28T16:56:54.303Z,94373.16
2023-03-28T16:59:26.128Z,94372.56
2023-03-28T17:01:54.518Z,94358.25
2023-03-28T17:04:22.999Z,94379.16
2023-03-28T17:06:53.178Z,94376.16
2023-03-28T17:09:21.663Z,94381.88
2023-03-28T17:11:50.138Z,94377.66
2023-03-28T17:14:18.614Z,94385.47
2023-03-28T17:16:47.073Z,94379.22
2023-03-28T17:19:40.506Z,94379.06
2023-03-28T17:22:14.266Z,94381.84
2023-03-28T17:24:44.168Z,94396.00
2023-03-28T17:27:12.650Z,94398.44
2023-03-28T17:30:07.247Z,94395.47
2023-03-28T17:32:35.853Z,94400.06
2023-03-28T17:35:04.946Z,94404.28
2023-03-28T17:37:35.222Z,94422.97
2023-03-28T17:40:03.804Z,94430.34
2023-03-28T17:42:32.379Z,94444.06
2023-03-28T17:45:01.000Z,94443.69
2023-03-28T17:47:30.451Z,94456.44
2023-03-28T17:50:00.499Z,94460.03
2023-03-28T17:52:30.640Z,94464.59
2023-03-28T17:55:00.486Z,94469.00
2023-03-28T17:57:29.035Z,94479.34
2023-03-28T17:59:57.648Z,94484.09
2023-03-28T18:02:26.146Z,94476.56
2023-03-28T18:04:54.753Z,94486.47
2023-03-28T18:07:23.415Z,94485.09
2023-03-28T18:09:51.965Z,94483.13
2023-03-28T18:12:22.365Z,94499.81
2023-03-28T18:14:50.851Z,94503.00
2023-03-28T18:17:20.122Z,94518.91
2023-03-28T18:19:48.851Z,94515.16
2023-03-28T18:22:18.120Z,94512.97
2023-03-28T18:24:46.596Z,94508.38
2023-03-28T18:27:14.996Z,94514.75
2023-03-28T18:29:44.842Z,94519.94
2023-03-28T18:32:13.348Z,94518.91
2023-03-28T18:34:42.943Z,94519.91
2023-03-28T18:37:12.371Z,94533.03
2023-03-28T18:39:42.260Z,94533.66
2023-03-28T18:42:10.718Z,94542.78
2023-03-28T18:44:40.907Z,94539.97
2023-03-28T18:47:10.871Z,94549.78
2023-03-28T18:49:41.014Z,94554.16
2023-03-28T18:52:10.645Z,94558.47
2023-03-28T18:54:45.702Z,94564.47
2023-03-28T18:57:15.031Z,94565.19
2023-03-28T18:59:43.591Z,94575.38
2023-03-28T19:02:15.325Z,94566.84
2023-03-28T19:04:43.804Z,94577.16
2023-03-28T19:07:13.385Z,94579.97
2023-03-28T19:09:42.998Z,94576.97
2023-03-28T19:12:12.722Z,94581.75
2023-03-28T19:14:41.299Z,94584.97
2023-03-28T19:17:09.729Z,94586.31
2023-03-28T19:19:39.699Z,94582.28
2023-03-28T19:22:08.126Z,94586.34
2023-03-28T19:25:00.372Z,94591.41
2023-03-28T19:27:28.942Z,94572.56
2023-03-28T19:29:57.557Z,94572.31
2023-03-28T19:32:26.277Z,94569.13
2023-03-28T19:34:56.111Z,94566.13
2023-03-28T19:37:24.651Z,94576.19
2023-03-28T19:39:53.311Z,94577.19
2023-03-28T19:42:21.843Z,94577.84
2023-03-28T19:44:50.354Z,94582.66
2023-03-28T19:47:18.818Z,94581.78
2023-03-28T19:49:47.299Z,94583.03
2023-03-28T19:52:42.751Z,94605.06
2023-03-28T19:55:11.684Z,94602.56
2023-03-28T19:57:40.920Z,94605.06
2023-03-28T20:00:12.219Z,94618.81
2023-03-28T20:02:40.805Z,94624.16
2023-03-28T20:05:10.506Z,94625.97
2023-03-28T20:07:39.134Z,94627.59
2023-03-28T20:10:10.319Z,94633.53
2023-03-28T20:12:40.061Z,94640.28
2023-03-28T20:15:24.873Z,94634.63
2023-03-28T20:17:53.348Z,94625.66
2023-03-28T20:20:23.995Z,94628.47
2023-03-28T20:22:52.482Z,94631.44
2023-03-28T20:25:22.432Z,94632.84
2023-03-28T20:27:50.867Z,94637.66
2023-03-28T20:30:19.511Z,94642.25
2023-03-28T20:32:49.453Z,94644.31
2023-03-28T20:35:18.336Z,94648.09
2023-03-28T20:37:46.866Z,94654.66
2023-03-28T20:40:15.303Z,94657.38
2023-03-28T20:42:45.135Z,94665.19
2023-03-28T20:45:22.320Z,94665.31
2023-03-28T20:47:56.507Z,94669.22
2023-03-28T20:50:33.970Z,94666.22
2023-03-28T20:53:03.679Z,94657.94
2023-03-28T20:55:33.231Z,94659.94
2023-03-28T20:58:03.382Z,94670.28
2023-03-28T21:00:35.915Z,94662.16
2023-03-28T21:03:04.650Z,94661.38
2023-03-28T21:05:33.971Z,94654.00
2023-03-28T21:08:04.373Z,94650.78
2023-03-28T21:10:33.372Z,94659.78
2023-03-28T21:13:03.281Z,94653.63
2023-03-28T21:15:32.329Z,94650.19
2023-03-28T21:18:00.990Z,94659.25
2023-03-28T21:20:29.532Z,94672.81
2023-03-28T21:22:57.948Z,94669.22
2023-03-28T21:25:26.460Z,94674.53
2023-03-28T21:27:55.093Z,94682.78
2023-03-28T21:30:25.033Z,94672.72
2023-03-28T21:32:54.510Z,94667.16
2023-03-28T21:35:23.110Z,94672.09
2023-03-28T21:37:51.749Z,94661.81
2023-03-28T21:40:20.324Z,94665.66
2023-03-28T21:42:48.780Z,94665.28
2023-03-28T21:45:17.384Z,94661.25
2023-03-28T21:47:47.737Z,94666.22
2023-03-28T21:50:16.606Z,94676.44
2023-03-28T21:52:45.065Z,94677.97
2023-03-28T21:55:13.585Z,94670.53
2023-03-28T21:57:42.099Z,94684.97
2023-03-28T22:00:15.103Z,94686.69
2023-03-28T22:02:44.436Z,94684.09
2023-03-28T22:05:28.190Z,94691.91
2023-03-28T22:07:57.577Z,94703.25
2023-03-28T22:10:27.712Z,94707.25
2023-03-28T22:12:58.818Z,94701.91
2023-03-28T22:15:27.959Z,94709.78
2023-03-28T22:17:58.422Z,94716.19
2023-03-28T22:20:29.645Z,94717.78
2023-03-28T22:23:00.588Z,94713.97
2023-03-28T22:25:34.638Z,94704.97
2023-03-28T22:28:04.021Z,94710.25
2023-03-28T22:30:32.596Z,94714.94
2023-03-28T22:33:02.512Z,94713.47
2023-03-28T22:35:33.625Z,94717.28
2023-03-28T22:38:02.248Z,94723.44
2023-03-28T22:40:31.828Z,94715.81
2023-03-28T22:43:00.595Z,94713.34
2023-03-28T22:45:29.204Z,94717.91
2023-03-28T22:48:00.538Z,94723.00
2023-03-28T22:50:29.906Z,94724.47
2023-03-28T22:53:02.398Z,94729.69
2023-03-28T22:55:30.886Z,94728.09
2023-03-28T22:57:59.350Z,94728.22
2023-03-28T23:00:28.755Z,94726.28
2023-03-28T23:02:57.308Z,94734.44
2023-03-28T23:05:25.959Z,94718.84
2023-03-28T23:07:55.072Z,94732.94
2023-03-28T23:10:25.038Z,94736.50
2023-03-28T23:12:53.540Z,94731.31
2023-03-28T23:15:21.991Z,94742.75
2023-03-28T23:17:50.977Z,94734.03
2023-03-28T23:20:19.982Z,94736.97
2023-03-28T23:22:49.935Z,94724.53
2023-03-28T23:25:19.704Z,94733.88
2023-03-28T23:27:49.663Z,94729.44
2023-03-28T23:30:18.790Z,94733.00
2023-03-28T23:32:47.310Z,94720.59
2023-03-28T23:35:15.778Z,94719.84
2023-03-28T23:37:44.871Z,94712.41
2023-03-28T23:40:15.549Z,94722.56
2023-03-28T23:42:45.403Z,94734.84
2023-03-28T23:45:16.749Z,94731.47
2023-03-28T23:47:46.162Z,94729.97
2023-03-28T23:50:14.638Z,94732.28
2023-03-28T23:52:43.096Z,94735.34
2023-03-28T23:55:11.787Z,94738.97
2023-03-28T23:57:40.283Z,94737.16
